sensor_id;sensor_type;location;lat;lon;timestamp;P1;durP1;ratioP1;P2;durP2;ratioP2
50591;SDS011;36548;50.506;30.834;2023-04-24T00:00:20;46.60;;;33.35;;
50591;SDS011;36548;50.506;30.834;2023-04-24T00:01:30;42.33;;;30.40;;
50591;SDS011;36548;50.506;30.834;2023-04-24T00:02:45;38.33;;;29.33;;
50591;SDS011;36548;50.506;30.834;2023-04-24T00:03:56;35.75;;;27.43;;
50591;SDS011;36548;50.506;30.834;2023-04-24T00:05:14;45.55;;;30.58;;
50591;SDS011;36548;50.506;30.834;2023-04-24T00:06:25;36.32;;;28.37;;
50591;SDS011;36548;50.506;30.834;2023-04-24T00:07:47;32.00;;;24.30;;
50591;SDS011;36548;50.506;30.834;2023-04-24T00:08:56;30.25;;;21.25;;
50591;SDS011;36548;50.506;30.834;2023-04-24T00:10:12;31.57;;;23.87;;
50591;SDS011;36548;50.506;30.834;2023-04-24T00:11:21;30.72;;;20.80;;
50591;SDS011;36548;50.506;30.834;2023-04-24T00:12:37;23.50;;;17.43;;
50591;SDS011;36548;50.506;30.834;2023-04-24T00:13:47;17.38;;;13.72;;
50591;SDS011;36548;50.506;30.834;2023-04-24T00:15:04;16.05;;;12.80;;
50591;SDS011;36548;50.506;30.834;2023-04-24T00:16:15;14.32;;;10.63;;
50591;SDS011;36548;50.506;30.834;2023-04-24T00:17:24;12.22;;;9.88;;
50591;SDS011;36548;50.506;30.834;2023-04-24T00:18:33;11.80;;;9.90;;
50591;SDS011;36548;50.506;30.834;2023-04-24T00:19:42;10.00;;;8.65;;
50591;SDS011;36548;50.506;30.834;2023-04-24T00:20:52;9.90;;;8.60;;
50591;SDS011;36548;50.506;30.834;2023-04-24T00:22:02;10.42;;;9.27;;
50591;SDS011;36548;50.506;30.834;2023-04-24T00:23:17;10.08;;;8.28;;
50591;SDS011;36548;50.506;30.834;2023-04-24T00:24:26;9.42;;;7.62;;
50591;SDS011;36548;50.506;30.834;2023-04-24T00:25:35;8.37;;;7.18;;
50591;SDS011;36548;50.506;30.834;2023-04-24T00:26:57;7.82;;;6.77;;
50591;SDS011;36548;50.506;30.834;2023-04-24T00:28:05;7.87;;;7.07;;
50591;SDS011;36548;50.506;30.834;2023-04-24T00:29:16;9.38;;;7.44;;
50591;SDS011;36548;50.506;30.834;2023-04-24T00:30:25;8.22;;;7.00;;
50591;SDS011;36548;50.506;30.834;2023-04-24T00:31:41;8.05;;;6.80;;
50591;SDS011;36548;50.506;30.834;2023-04-24T00:32:50;8.60;;;7.23;;
50591;SDS011;36548;50.506;30.834;2023-04-24T00:33:59;8.17;;;7.35;;
50591;SDS011;36548;50.506;30.834;2023-04-24T00:35:14;7.10;;;6.10;;
50591;SDS011;36548;50.506;30.834;2023-04-24T00:36:24;6.80;;;5.53;;
50591;SDS011;36548;50.506;30.834;2023-04-24T00:37:33;6.55;;;5.45;;
50591;SDS011;36548;50.506;30.834;2023-04-24T00:38:50;7.20;;;6.35;;
50591;SDS011;36548;50.506;30.834;2023-04-24T00:40:00;6.35;;;5.75;;
50591;SDS011;36548;50.506;30.834;2023-04-24T00:41:10;9.55;;;6.40;;
50591;SDS011;36548;50.506;30.834;2023-04-24T00:42:20;8.68;;;6.08;;
50591;SDS011;36548;50.506;30.834;2023-04-24T00:43:30;7.90;;;6.65;;
50591;SDS011;36548;50.506;30.834;2023-04-24T00:44:41;8.68;;;5.38;;
50591;SDS011;36548;50.506;30.834;2023-04-24T00:45:56;7.65;;;4.85;;
50591;SDS011;36548;50.506;30.834;2023-04-24T00:47:07;9.48;;;6.07;;
50591;SDS011;36548;50.506;30.834;2023-04-24T00:48:24;6.75;;;5.68;;
50591;SDS011;36548;50.506;30.834;2023-04-24T00:49:34;6.07;;;5.47;;
50591;SDS011;36548;50.506;30.834;2023-04-24T00:50:49;6.42;;;4.93;;
50591;SDS011;36548;50.506;30.834;2023-04-24T00:51:58;5.55;;;4.80;;
50591;SDS011;36548;50.506;30.834;2023-04-24T00:53:15;6.58;;;5.54;;
50591;SDS011;36548;50.506;30.834;2023-04-24T00:54:25;6.20;;;5.60;;
50591;SDS011;36548;50.506;30.834;2023-04-24T00:55:40;5.52;;;4.93;;
50591;SDS011;36548;50.506;30.834;2023-04-24T00:56:51;5.70;;;5.10;;
50591;SDS011;36548;50.506;30.834;2023-04-24T00:58:08;6.18;;;5.50;;
50591;SDS011;36548;50.506;30.834;2023-04-24T00:59:18;7.83;;;5.77;;
50591;SDS011;36548;50.506;30.834;2023-04-24T01:00:35;8.02;;;5.95;;
50591;SDS011;36548;50.506;30.834;2023-04-24T01:01:44;6.37;;;5.00;;
50591;SDS011;36548;50.506;30.834;2023-04-24T01:02:55;6.30;;;5.03;;
50591;SDS011;36548;50.506;30.834;2023-04-24T01:04:12;7.15;;;5.87;;
50591;SDS011;36548;50.506;30.834;2023-04-24T01:05:22;6.87;;;5.95;;
50591;SDS011;36548;50.506;30.834;2023-04-24T01:06:31;7.73;;;6.03;;
50591;SDS011;36548;50.506;30.834;2023-04-24T01:07:40;6.62;;;5.28;;
50591;SDS011;36548;50.506;30.834;2023-04-24T01:08:57;7.03;;;5.82;;
50591;SDS011;36548;50.506;30.834;2023-04-24T01:10:11;7.62;;;6.47;;
50591;SDS011;36548;50.506;30.834;2023-04-24T01:11:22;7.50;;;6.25;;
50591;SDS011;36548;50.506;30.834;2023-04-24T01:12:30;7.52;;;6.15;;
50591;SDS011;36548;50.506;30.834;2023-04-24T01:13:43;6.16;;;5.46;;
50591;SDS011;36548;50.506;30.834;2023-04-24T01:14:55;6.65;;;5.68;;
50591;SDS011;36548;50.506;30.834;2023-04-24T01:16:13;5.95;;;5.35;;
50591;SDS011;36548;50.506;30.834;2023-04-24T01:17:23;5.88;;;5.23;;
50591;SDS011;36548;50.506;30.834;2023-04-24T01:18:32;5.42;;;4.82;;
50591;SDS011;36548;50.506;30.834;2023-04-24T01:19:42;7.17;;;5.10;;
50591;SDS011;36548;50.506;30.834;2023-04-24T01:21:02;7.02;;;4.62;;
50591;SDS011;36548;50.506;30.834;2023-04-24T01:22:13;6.98;;;5.85;;
50591;SDS011;36548;50.506;30.834;2023-04-24T01:23:30;6.88;;;5.95;;
50591;SDS011;36548;50.506;30.834;2023-04-24T01:24:39;7.85;;;5.45;;
50591;SDS011;36548;50.506;30.834;2023-04-24T01:25:55;6.65;;;5.55;;
50591;SDS011;36548;50.506;30.834;2023-04-24T01:27:07;6.08;;;4.57;;
50591;SDS011;36548;50.506;30.834;2023-04-24T01:28:24;6.52;;;5.17;;
50591;SDS011;36548;50.506;30.834;2023-04-24T01:29:34;5.43;;;4.78;;
50591;SDS011;36548;50.506;30.834;2023-04-24T01:30:44;7.30;;;5.00;;
50591;SDS011;36548;50.506;30.834;2023-04-24T01:31:55;6.22;;;5.22;;
50591;SDS011;36548;50.506;30.834;2023-04-24T01:33:06;6.63;;;5.60;;
50591;SDS011;36548;50.506;30.834;2023-04-24T01:34:17;6.38;;;5.18;;
50591;SDS011;36548;50.506;30.834;2023-04-24T01:35:27;7.20;;;5.50;;
50591;SDS011;36548;50.506;30.834;2023-04-24T01:36:37;7.75;;;6.08;;
50591;SDS011;36548;50.506;30.834;2023-04-24T01:37:46;7.70;;;5.35;;
50591;SDS011;36548;50.506;30.834;2023-04-24T01:38:55;6.03;;;5.22;;
50591;SDS011;36548;50.506;30.834;2023-04-24T01:40:06;6.18;;;4.85;;
50591;SDS011;36548;50.506;30.834;2023-04-24T01:41:23;8.35;;;5.10;;
50591;SDS011;36548;50.506;30.834;2023-04-24T01:42:34;6.05;;;4.75;;
50591;SDS011;36548;50.506;30.834;2023-04-24T01:43:51;6.90;;;5.08;;
50591;SDS011;36548;50.506;30.834;2023-04-24T01:45:01;6.12;;;5.28;;
50591;SDS011;36548;50.506;30.834;2023-04-24T01:46:18;6.32;;;4.40;;
50591;SDS011;36548;50.506;30.834;2023-04-24T01:47:27;4.98;;;4.47;;
50591;SDS011;36548;50.506;30.834;2023-04-24T01:48:39;4.73;;;3.83;;
50591;SDS011;36548;50.506;30.834;2023-04-24T01:49:50;5.00;;;4.30;;
50591;SDS011;36548;50.506;30.834;2023-04-24T01:51:05;5.12;;;4.40;;
50591;SDS011;36548;50.506;30.834;2023-04-24T01:52:14;7.05;;;4.35;;
50591;SDS011;36548;50.506;30.834;2023-04-24T01:53:24;5.50;;;4.40;;
50591;SDS011;36548;50.506;30.834;2023-04-24T01:54:34;5.80;;;5.15;;
50591;SDS011;36548;50.506;30.834;2023-04-24T01:55:43;5.35;;;4.43;;
50591;SDS011;36548;50.506;30.834;2023-04-24T01:56:59;6.37;;;4.98;;
50591;SDS011;36548;50.506;30.834;2023-04-24T01:58:10;6.45;;;4.70;;
50591;SDS011;36548;50.506;30.834;2023-04-24T01:59:27;6.15;;;4.58;;
50591;SDS011;36548;50.506;30.834;2023-04-24T02:00:38;5.12;;;4.62;;
50591;SDS011;36548;50.506;30.834;2023-04-24T02:01:47;6.32;;;4.53;;
50591;SDS011;36548;50.506;30.834;2023-04-24T02:03:02;5.45;;;4.28;;
50591;SDS011;36548;50.506;30.834;2023-04-24T02:04:11;4.48;;;3.78;;
50591;SDS011;36548;50.506;30.834;2023-04-24T02:05:21;7.90;;;4.30;;
50591;SDS011;36548;50.506;30.834;2023-04-24T02:06:56;4.27;;;3.88;;
50591;SDS011;36548;50.506;30.834;2023-04-24T02:09:22;5.43;;;4.03;;
50591;SDS011;36548;50.506;30.834;2023-04-24T02:10:33;4.52;;;3.85;;
50591;SDS011;36548;50.506;30.834;2023-04-24T02:11:42;5.78;;;4.38;;
50591;SDS011;36548;50.506;30.834;2023-04-24T02:12:52;5.75;;;4.45;;
50591;SDS011;36548;50.506;30.834;2023-04-24T02:14:03;7.15;;;5.43;;
50591;SDS011;36548;50.506;30.834;2023-04-24T02:15:12;6.25;;;5.53;;
50591;SDS011;36548;50.506;30.834;2023-04-24T02:16:28;6.50;;;5.57;;
50591;SDS011;36548;50.506;30.834;2023-04-24T02:17:41;6.62;;;5.23;;
50591;SDS011;36548;50.506;30.834;2023-04-24T02:18:51;6.47;;;5.50;;
50591;SDS011;36548;50.506;30.834;2023-04-24T02:20:01;7.95;;;4.90;;
50591;SDS011;36548;50.506;30.834;2023-04-24T02:21:18;7.67;;;5.52;;
50591;SDS011;36548;50.506;30.834;2023-04-24T02:22:27;8.68;;;6.33;;
50591;SDS011;36548;50.506;30.834;2023-04-24T02:23:37;7.57;;;6.28;;
50591;SDS011;36548;50.506;30.834;2023-04-24T02:24:46;7.48;;;5.60;;
50591;SDS011;36548;50.506;30.834;2023-04-24T02:26:02;6.65;;;5.95;;
50591;SDS011;36548;50.506;30.834;2023-04-24T02:27:12;7.20;;;6.00;;
50591;SDS011;36548;50.506;30.834;2023-04-24T02:28:28;7.43;;;5.90;;
50591;SDS011;36548;50.506;30.834;2023-04-24T02:29:38;5.97;;;5.37;;
50591;SDS011;36548;50.506;30.834;2023-04-24T02:30:47;10.55;;;5.63;;
50591;SDS011;36548;50.506;30.834;2023-04-24T02:32:03;6.42;;;5.50;;
50591;SDS011;36548;50.506;30.834;2023-04-24T02:33:12;6.63;;;5.93;;
50591;SDS011;36548;50.506;30.834;2023-04-24T02:34:28;5.52;;;4.13;;
50591;SDS011;36548;50.506;30.834;2023-04-24T02:35:37;3.70;;;3.40;;
50591;SDS011;36548;50.506;30.834;2023-04-24T02:36:52;4.28;;;3.05;;
50591;SDS011;36548;50.506;30.834;2023-04-24T02:38:03;4.10;;;3.10;;
50591;SDS011;36548;50.506;30.834;2023-04-24T02:39:18;4.55;;;2.80;;
50591;SDS011;36548;50.506;30.834;2023-04-24T02:40:28;4.33;;;2.85;;
50591;SDS011;36548;50.506;30.834;2023-04-24T02:41:37;3.20;;;2.68;;
50591;SDS011;36548;50.506;30.834;2023-04-24T02:42:53;3.33;;;2.92;;
50591;SDS011;36548;50.506;30.834;2023-04-24T02:44:05;4.25;;;3.35;;
50591;SDS011;36548;50.506;30.834;2023-04-24T02:45:14;3.47;;;3.15;;
50591;SDS011;36548;50.506;30.834;2023-04-24T02:46:31;3.75;;;3.38;;
50591;SDS011;36548;50.506;30.834;2023-04-24T02:47:40;5.63;;;3.45;;
50591;SDS011;36548;50.506;30.834;2023-04-24T02:48:50;4.23;;;3.42;;
50591;SDS011;36548;50.506;30.834;2023-04-24T02:50:05;4.28;;;3.23;;
50591;SDS011;36548;50.506;30.834;2023-04-24T02:51:16;5.10;;;3.28;;
50591;SDS011;36548;50.506;30.834;2023-04-24T02:52:31;3.72;;;3.40;;
50591;SDS011;36548;50.506;30.834;2023-04-24T02:53:41;4.43;;;2.68;;
50591;SDS011;36548;50.506;30.834;2023-04-24T02:54:57;4.40;;;2.90;;
50591;SDS011;36548;50.506;30.834;2023-04-24T02:56:06;3.37;;;2.93;;
50591;SDS011;36548;50.506;30.834;2023-04-24T02:57:22;4.37;;;3.48;;
50591;SDS011;36548;50.506;30.834;2023-04-24T02:58:31;4.70;;;3.75;;
50591;SDS011;36548;50.506;30.834;2023-04-24T02:59:41;3.85;;;3.35;;
50591;SDS011;36548;50.506;30.834;2023-04-24T03:00:54;4.60;;;3.50;;
50591;SDS011;36548;50.506;30.834;2023-04-24T03:02:10;5.73;;;5.15;;
50591;SDS011;36548;50.506;30.834;2023-04-24T03:03:19;6.70;;;6.00;;
50591;SDS011;36548;50.506;30.834;2023-04-24T03:04:29;7.60;;;6.90;;
50591;SDS011;36548;50.506;30.834;2023-04-24T03:05:44;12.40;;;7.90;;
50591;SDS011;36548;50.506;30.834;2023-04-24T03:06:55;8.53;;;7.28;;
50591;SDS011;36548;50.506;30.834;2023-04-24T03:08:05;9.90;;;7.68;;
50591;SDS011;36548;50.506;30.834;2023-04-24T03:09:14;10.27;;;9.10;;
50591;SDS011;36548;50.506;30.834;2023-04-24T03:10:24;12.06;;;9.72;;
50591;SDS011;36548;50.506;30.834;2023-04-24T03:11:33;15.57;;;11.60;;
50591;SDS011;36548;50.506;30.834;2023-04-24T03:12:44;17.25;;;13.15;;
50591;SDS011;36548;50.506;30.834;2023-04-24T03:13:56;21.60;;;14.75;;
50591;SDS011;36548;50.506;30.834;2023-04-24T03:15:11;20.33;;;14.15;;
50591;SDS011;36548;50.506;30.834;2023-04-24T03:16:20;16.53;;;11.93;;
50591;SDS011;36548;50.506;30.834;2023-04-24T03:17:35;12.23;;;8.97;;
50591;SDS011;36548;50.506;30.834;2023-04-24T03:18:45;9.20;;;6.80;;
50591;SDS011;36548;50.506;30.834;2023-04-24T03:19:54;9.67;;;6.85;;
50591;SDS011;36548;50.506;30.834;2023-04-24T03:21:10;10.08;;;6.73;;
50591;SDS011;36548;50.506;30.834;2023-04-24T03:22:19;10.27;;;7.70;;
50591;SDS011;36548;50.506;30.834;2023-04-24T03:23:34;8.45;;;7.30;;
50591;SDS011;36548;50.506;30.834;2023-04-24T03:24:43;7.88;;;7.08;;
50591;SDS011;36548;50.506;30.834;2023-04-24T03:25:53;9.70;;;7.10;;
50591;SDS011;36548;50.506;30.834;2023-04-24T03:27:11;8.68;;;7.57;;
50591;SDS011;36548;50.506;30.834;2023-04-24T03:29:11;18.70;;;11.30;;
50591;SDS011;36548;50.506;30.834;2023-04-24T03:30:26;21.07;;;14.18;;
50591;SDS011;36548;50.506;30.834;2023-04-24T03:31:37;25.17;;;14.68;;
50591;SDS011;36548;50.506;30.834;2023-04-24T03:32:54;12.35;;;10.20;;
50591;SDS011;36548;50.506;30.834;2023-04-24T03:34:05;9.85;;;8.85;;
50591;SDS011;36548;50.506;30.834;2023-04-24T03:35:21;11.93;;;8.68;;
50591;SDS011;36548;50.506;30.834;2023-04-24T03:37:40;9.33;;;7.52;;
50591;SDS011;36548;50.506;30.834;2023-04-24T03:39:52;10.00;;;7.15;;
50591;SDS011;36548;50.506;30.834;2023-04-24T03:41:07;8.13;;;6.83;;
50591;SDS011;36548;50.506;30.834;2023-04-24T03:42:18;8.85;;;7.45;;
50591;SDS011;36548;50.506;30.834;2023-04-24T03:43:31;8.22;;;7.17;;
50591;SDS011;36548;50.506;30.834;2023-04-24T03:44:42;9.23;;;5.87;;
50591;SDS011;36548;50.506;30.834;2023-04-24T03:45:57;7.23;;;6.07;;
50591;SDS011;36548;50.506;30.834;2023-04-24T03:47:07;6.23;;;5.65;;
50591;SDS011;36548;50.506;30.834;2023-04-24T03:48:22;6.67;;;5.23;;
50591;SDS011;36548;50.506;30.834;2023-04-24T03:49:32;10.90;;;6.50;;
50591;SDS011;36548;50.506;30.834;2023-04-24T03:50:49;9.57;;;6.30;;
50591;SDS011;36548;50.506;30.834;2023-04-24T03:51:58;7.37;;;5.70;;
50591;SDS011;36548;50.506;30.834;2023-04-24T03:53:13;7.62;;;5.92;;
50591;SDS011;36548;50.506;30.834;2023-04-24T03:54:25;7.72;;;6.65;;
50591;SDS011;36548;50.506;30.834;2023-04-24T03:55:41;9.90;;;6.60;;
50591;SDS011;36548;50.506;30.834;2023-04-24T03:58:01;8.35;;;6.92;;
50591;SDS011;36548;50.506;30.834;2023-04-24T03:59:10;8.65;;;6.80;;
50591;SDS011;36548;50.506;30.834;2023-04-24T04:00:32;10.72;;;6.47;;
50591;SDS011;36548;50.506;30.834;2023-04-24T04:01:44;9.00;;;6.40;;
50591;SDS011;36548;50.506;30.834;2023-04-24T04:03:00;8.20;;;6.60;;
50591;SDS011;36548;50.506;30.834;2023-04-24T04:04:10;7.20;;;6.35;;
50591;SDS011;36548;50.506;30.834;2023-04-24T04:05:20;7.80;;;6.38;;
50591;SDS011;36548;50.506;30.834;2023-04-24T04:06:36;6.88;;;6.17;;
50591;SDS011;36548;50.506;30.834;2023-04-24T04:07:45;9.07;;;5.60;;
50591;SDS011;36548;50.506;30.834;2023-04-24T04:08:55;7.25;;;5.52;;
50591;SDS011;36548;50.506;30.834;2023-04-24T04:10:10;7.13;;;6.17;;
50591;SDS011;36548;50.506;30.834;2023-04-24T04:11:18;7.88;;;5.82;;
50591;SDS011;36548;50.506;30.834;2023-04-24T04:12:29;10.20;;;7.20;;
50591;SDS011;36548;50.506;30.834;2023-04-24T04:13:45;7.98;;;6.50;;
50591;SDS011;36548;50.506;30.834;2023-04-24T04:14:56;7.47;;;6.45;;
50591;SDS011;36548;50.506;30.834;2023-04-24T04:16:06;15.70;;;12.80;;
50591;SDS011;36548;50.506;30.834;2023-04-24T04:17:17;20.35;;;13.40;;
50591;SDS011;36548;50.506;30.834;2023-04-24T04:18:33;18.82;;;11.77;;
50591;SDS011;36548;50.506;30.834;2023-04-24T04:19:46;18.97;;;13.33;;
50591;SDS011;36548;50.506;30.834;2023-04-24T04:20:55;16.92;;;13.47;;
50591;SDS011;36548;50.506;30.834;2023-04-24T04:22:11;19.78;;;14.80;;
50591;SDS011;36548;50.506;30.834;2023-04-24T04:23:25;19.42;;;15.07;;
50591;SDS011;36548;50.506;30.834;2023-04-24T04:24:41;23.18;;;16.13;;
50591;SDS011;36548;50.506;30.834;2023-04-24T04:25:51;19.35;;;13.32;;
50591;SDS011;36548;50.506;30.834;2023-04-24T04:27:06;12.65;;;9.60;;
50591;SDS011;36548;50.506;30.834;2023-04-24T04:28:18;11.02;;;9.37;;
50591;SDS011;36548;50.506;30.834;2023-04-24T04:29:34;13.37;;;11.48;;
50591;SDS011;36548;50.506;30.834;2023-04-24T04:30:45;11.60;;;9.70;;
50591;SDS011;36548;50.506;30.834;2023-04-24T04:32:01;11.52;;;8.25;;
50591;SDS011;36548;50.506;30.834;2023-04-24T04:33:11;14.70;;;11.00;;
50591;SDS011;36548;50.506;30.834;2023-04-24T04:34:21;14.43;;;11.05;;
50591;SDS011;36548;50.506;30.834;2023-04-24T04:35:37;15.28;;;11.73;;
50591;SDS011;36548;50.506;30.834;2023-04-24T04:36:47;13.98;;;10.48;;
50591;SDS011;36548;50.506;30.834;2023-04-24T04:37:58;15.27;;;11.78;;
50591;SDS011;36548;50.506;30.834;2023-04-24T04:39:11;18.17;;;13.50;;
50591;SDS011;36548;50.506;30.834;2023-04-24T04:40:30;20.73;;;13.27;;
50591;SDS011;36548;50.506;30.834;2023-04-24T04:41:45;10.88;;;8.20;;
50591;SDS011;36548;50.506;30.834;2023-04-24T04:42:59;16.18;;;12.20;;
50591;SDS011;36548;50.506;30.834;2023-04-24T04:44:10;11.63;;;8.12;;
50591;SDS011;36548;50.506;30.834;2023-04-24T04:45:20;11.40;;;8.33;;
50591;SDS011;36548;50.506;30.834;2023-04-24T04:46:31;7.82;;;6.28;;
50591;SDS011;36548;50.506;30.834;2023-04-24T04:47:51;7.93;;;6.73;;
50591;SDS011;36548;50.506;30.834;2023-04-24T04:49:00;9.10;;;7.07;;
50591;SDS011;36548;50.506;30.834;2023-04-24T04:50:17;9.90;;;6.88;;
50591;SDS011;36548;50.506;30.834;2023-04-24T04:51:28;10.52;;;6.50;;
50591;SDS011;36548;50.506;30.834;2023-04-24T04:52:39;8.74;;;6.26;;
50591;SDS011;36548;50.506;30.834;2023-04-24T04:54:39;7.60;;;6.10;;
50591;SDS011;36548;50.506;30.834;2023-04-24T04:55:57;8.10;;;6.10;;
50591;SDS011;36548;50.506;30.834;2023-04-24T04:57:18;8.00;;;6.00;;
50591;SDS011;36548;50.506;30.834;2023-04-24T04:58:28;7.88;;;6.00;;
50591;SDS011;36548;50.506;30.834;2023-04-24T04:59:40;8.85;;;6.30;;
50591;SDS011;36548;50.506;30.834;2023-04-24T05:00:53;13.02;;;9.10;;
50591;SDS011;36548;50.506;30.834;2023-04-24T05:02:05;15.55;;;11.60;;
50591;SDS011;36548;50.506;30.834;2023-04-24T05:03:20;14.38;;;10.93;;
50591;SDS011;36548;50.506;30.834;2023-04-24T05:04:31;14.85;;;11.63;;
50591;SDS011;36548;50.506;30.834;2023-04-24T05:05:47;18.42;;;12.35;;
50591;SDS011;36548;50.506;30.834;2023-04-24T05:09:29;19.05;;;13.80;;
50591;SDS011;36548;50.506;30.834;2023-04-24T05:10:45;18.10;;;12.87;;
50591;SDS011;36548;50.506;30.834;2023-04-24T05:11:54;14.95;;;12.95;;
50591;SDS011;36548;50.506;30.834;2023-04-24T05:13:11;17.62;;;12.68;;
50591;SDS011;36548;50.506;30.834;2023-04-24T05:14:22;16.65;;;12.37;;
50591;SDS011;36548;50.506;30.834;2023-04-24T05:15:38;18.40;;;13.05;;
50591;SDS011;36548;50.506;30.834;2023-04-24T05:16:48;18.15;;;13.00;;
50591;SDS011;36548;50.506;30.834;2023-04-24T05:18:00;14.53;;;12.02;;
50591;SDS011;36548;50.506;30.834;2023-04-24T05:19:16;14.37;;;11.02;;
50591;SDS011;36548;50.506;30.834;2023-04-24T05:20:26;12.65;;;11.05;;
50591;SDS011;36548;50.506;30.834;2023-04-24T05:21:43;14.70;;;10.45;;
50591;SDS011;36548;50.506;30.834;2023-04-24T05:22:52;13.40;;;10.25;;
50591;SDS011;36548;50.506;30.834;2023-04-24T05:24:08;13.27;;;11.00;;
50591;SDS011;36548;50.506;30.834;2023-04-24T05:25:28;14.72;;;10.93;;
50591;SDS011;36548;50.506;30.834;2023-04-24T05:26:46;12.35;;;10.22;;
50591;SDS011;36548;50.506;30.834;2023-04-24T05:27:57;14.50;;;11.40;;
50591;SDS011;36548;50.506;30.834;2023-04-24T05:29:12;14.72;;;11.73;;
50591;SDS011;36548;50.506;30.834;2023-04-24T05:30:23;16.12;;;12.50;;
50591;SDS011;36548;50.506;30.834;2023-04-24T05:31:32;16.25;;;11.83;;
50591;SDS011;36548;50.506;30.834;2023-04-24T05:32:42;12.75;;;10.20;;
50591;SDS011;36548;50.506;30.834;2023-04-24T05:33:52;15.32;;;11.38;;
50591;SDS011;36548;50.506;30.834;2023-04-24T05:35:02;12.10;;;10.30;;
50591;SDS011;36548;50.506;30.834;2023-04-24T05:36:17;12.68;;;8.57;;
50591;SDS011;36548;50.506;30.834;2023-04-24T05:37:27;10.58;;;7.98;;
50591;SDS011;36548;50.506;30.834;2023-04-24T05:38:37;11.20;;;8.30;;
50591;SDS011;36548;50.506;30.834;2023-04-24T05:39:47;8.50;;;7.50;;
50591;SDS011;36548;50.506;30.834;2023-04-24T05:40:56;8.70;;;7.50;;
50591;SDS011;36548;50.506;30.834;2023-04-24T05:42:11;10.57;;;7.32;;
50591;SDS011;36548;50.506;30.834;2023-04-24T05:43:21;63.15;;;56.95;;
50591;SDS011;36548;50.506;30.834;2023-04-24T05:44:31;14.50;;;11.90;;
50591;SDS011;36548;50.506;30.834;2023-04-24T05:45:47;12.60;;;8.88;;
50591;SDS011;36548;50.506;30.834;2023-04-24T05:50:10;8.03;;;7.08;;
50591;SDS011;36548;50.506;30.834;2023-04-24T05:51:19;7.62;;;5.90;;
50591;SDS011;36548;50.506;30.834;2023-04-24T05:54:39;5.98;;;5.05;;
50591;SDS011;36548;50.506;30.834;2023-04-24T05:55:51;4.63;;;4.20;;
50591;SDS011;36548;50.506;30.834;2023-04-24T05:58:23;4.55;;;4.00;;
50591;SDS011;36548;50.506;30.834;2023-04-24T05:59:33;5.95;;;4.00;;
50591;SDS011;36548;50.506;30.834;2023-04-24T06:00:51;7.45;;;4.38;;
50591;SDS011;36548;50.506;30.834;2023-04-24T06:02:00;7.28;;;4.00;;
50591;SDS011;36548;50.506;30.834;2023-04-24T06:03:11;4.98;;;4.30;;
50591;SDS011;36548;50.506;30.834;2023-04-24T06:05:36;5.20;;;3.82;;
50591;SDS011;36548;50.506;30.834;2023-04-24T06:06:47;5.18;;;3.47;;
50591;SDS011;36548;50.506;30.834;2023-04-24T06:07:59;6.57;;;3.82;;
50591;SDS011;36548;50.506;30.834;2023-04-24T06:09:14;5.25;;;3.53;;
50591;SDS011;36548;50.506;30.834;2023-04-24T06:10:27;5.82;;;3.47;;
50591;SDS011;36548;50.506;30.834;2023-04-24T06:12:02;5.12;;;3.23;;
50591;SDS011;36548;50.506;30.834;2023-04-24T06:13:14;6.33;;;3.55;;
50591;SDS011;36548;50.506;30.834;2023-04-24T06:14:25;6.35;;;3.20;;
50591;SDS011;36548;50.506;30.834;2023-04-24T06:16:26;3.85;;;2.97;;
50591;SDS011;36548;50.506;30.834;2023-04-24T06:17:42;3.60;;;3.07;;
50591;SDS011;36548;50.506;30.834;2023-04-24T06:20:02;3.12;;;2.50;;
50591;SDS011;36548;50.506;30.834;2023-04-24T06:21:19;7.18;;;2.57;;
50591;SDS011;36548;50.506;30.834;2023-04-24T06:22:29;4.55;;;2.50;;
50591;SDS011;36548;50.506;30.834;2023-04-24T06:23:44;3.42;;;2.27;;
50591;SDS011;36548;50.506;30.834;2023-04-24T06:24:55;4.35;;;2.87;;
50591;SDS011;36548;50.506;30.834;2023-04-24T06:26:05;3.80;;;2.23;;
50591;SDS011;36548;50.506;30.834;2023-04-24T06:27:21;2.88;;;2.47;;
50591;SDS011;36548;50.506;30.834;2023-04-24T06:28:30;6.58;;;2.70;;
50591;SDS011;36548;50.506;30.834;2023-04-24T06:29:39;6.15;;;2.62;;
50591;SDS011;36548;50.506;30.834;2023-04-24T06:30:55;6.08;;;2.50;;
50591;SDS011;36548;50.506;30.834;2023-04-24T06:32:04;3.47;;;2.38;;
50591;SDS011;36548;50.506;30.834;2023-04-24T06:33:20;6.62;;;2.98;;
50591;SDS011;36548;50.506;30.834;2023-04-24T06:34:31;6.22;;;2.87;;
50591;SDS011;36548;50.506;30.834;2023-04-24T06:35:42;6.28;;;3.28;;
50591;SDS011;36548;50.506;30.834;2023-04-24T06:36:52;3.25;;;2.50;;
50591;SDS011;36548;50.506;30.834;2023-04-24T06:38:02;4.15;;;2.90;;
50591;SDS011;36548;50.506;30.834;2023-04-24T06:39:19;5.60;;;3.00;;
50591;SDS011;36548;50.506;30.834;2023-04-24T06:40:29;4.92;;;2.93;;
50591;SDS011;36548;50.506;30.834;2023-04-24T06:41:45;6.97;;;3.45;;
50591;SDS011;36548;50.506;30.834;2023-04-24T06:42:56;5.75;;;3.50;;
50591;SDS011;36548;50.506;30.834;2023-04-24T06:44:07;5.70;;;3.35;;
50591;SDS011;36548;50.506;30.834;2023-04-24T06:45:23;6.60;;;3.52;;
50591;SDS011;36548;50.506;30.834;2023-04-24T06:46:33;4.80;;;2.65;;
50591;SDS011;36548;50.506;30.834;2023-04-24T06:47:52;2.75;;;2.18;;
50591;SDS011;36548;50.506;30.834;2023-04-24T06:49:07;4.85;;;2.48;;
50591;SDS011;36548;50.506;30.834;2023-04-24T06:50:22;3.07;;;2.42;;
50591;SDS011;36548;50.506;30.834;2023-04-24T06:51:39;3.45;;;2.40;;
50591;SDS011;36548;50.506;30.834;2023-04-24T06:52:49;4.15;;;2.17;;
50591;SDS011;36548;50.506;30.834;2023-04-24T06:54:04;3.48;;;2.32;;
50591;SDS011;36548;50.506;30.834;2023-04-24T06:55:14;3.65;;;2.25;;
50591;SDS011;36548;50.506;30.834;2023-04-24T06:56:31;3.28;;;2.77;;
50591;SDS011;36548;50.506;30.834;2023-04-24T06:58:50;3.43;;;2.72;;
50591;SDS011;36548;50.506;30.834;2023-04-24T07:00:06;3.87;;;2.67;;
50591;SDS011;36548;50.506;30.834;2023-04-24T07:01:18;2.53;;;2.13;;
50591;SDS011;36548;50.506;30.834;2023-04-24T07:02:33;4.42;;;2.05;;
50591;SDS011;36548;50.506;30.834;2023-04-24T07:03:43;4.57;;;2.48;;
50591;SDS011;36548;50.506;30.834;2023-04-24T07:04:52;6.28;;;2.25;;
50591;SDS011;36548;50.506;30.834;2023-04-24T07:06:07;3.30;;;2.47;;
50591;SDS011;36548;50.506;30.834;2023-04-24T07:07:16;3.07;;;2.55;;
50591;SDS011;36548;50.506;30.834;2023-04-24T07:08:31;3.10;;;2.25;;
50591;SDS011;36548;50.506;30.834;2023-04-24T07:09:41;5.00;;;2.48;;
50591;SDS011;36548;50.506;30.834;2023-04-24T07:10:57;4.90;;;2.30;;
50591;SDS011;36548;50.506;30.834;2023-04-24T07:12:06;2.38;;;1.80;;
50591;SDS011;36548;50.506;30.834;2023-04-24T07:13:22;2.42;;;1.93;;
50591;SDS011;36548;50.506;30.834;2023-04-24T07:14:31;4.67;;;2.40;;
50591;SDS011;36548;50.506;30.834;2023-04-24T07:15:40;2.65;;;1.92;;
50591;SDS011;36548;50.506;30.834;2023-04-24T07:16:50;3.45;;;1.80;;
50591;SDS011;36548;50.506;30.834;2023-04-24T07:18:06;2.55;;;1.83;;
50591;SDS011;36548;50.506;30.834;2023-04-24T07:19:15;4.50;;;2.23;;
50591;SDS011;36548;50.506;30.834;2023-04-24T07:20:31;2.52;;;1.68;;
50591;SDS011;36548;50.506;30.834;2023-04-24T07:21:41;3.32;;;2.18;;
50591;SDS011;36548;50.506;30.834;2023-04-24T07:22:57;3.02;;;1.97;;
50591;SDS011;36548;50.506;30.834;2023-04-24T07:24:06;2.88;;;1.60;;
50591;SDS011;36548;50.506;30.834;2023-04-24T07:25:23;2.93;;;2.13;;
50591;SDS011;36548;50.506;30.834;2023-04-24T07:26:32;3.97;;;2.08;;